createdAt,value
2019-03-30T00:00:32.516Z,84.22
2019-03-30T00:01:32.508Z,84.94
2019-03-30T00:02:35.506Z,84.28
2019-03-30T00:03:32.488Z,83.67
2019-03-30T00:04:32.473Z,83.87
2019-03-30T00:05:32.452Z,83.42
2019-03-30T00:06:32.508Z,83.73
2019-03-30T00:07:32.450Z,83.15
2019-03-30T00:08:32.429Z,83.22
2019-03-30T00:09:32.409Z,83.42
2019-03-30T00:10:32.386Z,83.15
2019-03-30T00:11:32.382Z,83.22
2019-03-30T00:12:32.374Z,83.36
2019-03-30T00:13:32.410Z,83.05
2019-03-30T00:14:32.350Z,83.15
2019-03-30T00:15:32.334Z,83.77
2019-03-30T00:16:32.414Z,83.77
2019-03-30T00:17:32.321Z,83.87
2019-03-30T00:18:32.331Z,83.36
2019-03-30T00:19:35.155Z,83.56
2019-03-30T00:20:32.279Z,83.91
2019-03-30T00:21:32.279Z,83.70
2019-03-30T00:22:32.276Z,83.70
2019-03-30T00:23:32.263Z,84.32
2019-03-30T00:24:32.235Z,84.42
2019-03-30T00:25:32.220Z,84.53
2019-03-30T00:26:32.222Z,84.42
2019-03-30T00:27:32.218Z,84.12
2019-03-30T00:28:32.211Z,84.53
2019-03-30T00:29:32.221Z,84.22
2019-03-30T00:30:32.183Z,84.32
2019-03-30T00:31:32.157Z,83.91
2019-03-30T00:32:32.155Z,84.12
2019-03-30T00:33:32.164Z,83.91
2019-03-30T00:34:32.133Z,83.81
2019-03-30T00:35:32.115Z,84.32
2019-03-30T00:36:32.098Z,83.81
2019-03-30T00:37:32.087Z,84.01
2019-03-30T00:38:32.092Z,84.12
2019-03-30T00:39:32.099Z,84.01
2019-03-30T00:40:32.065Z,83.70
2019-03-30T00:41:32.051Z,84.01
2019-03-30T00:42:32.037Z,83.91
2019-03-30T00:43:32.046Z,84.05
2019-03-30T00:44:32.025Z,84.47
2019-03-30T00:45:32.008Z,84.26
2019-03-30T00:46:31.994Z,84.05
2019-03-30T00:47:31.996Z,84.47
2019-03-30T00:48:31.984Z,83.75
2019-03-30T00:49:31.962Z,84.12
2019-03-30T00:50:31.955Z,84.12
2019-03-30T00:51:31.940Z,83.91
2019-03-30T00:52:31.938Z,83.85
2019-03-30T00:53:31.939Z,84.12
2019-03-30T00:54:31.920Z,83.75
2019-03-30T00:55:31.888Z,83.85
2019-03-30T00:56:31.892Z,84.05
2019-03-30T00:57:31.882Z,84.12
2019-03-30T00:58:31.880Z,84.16
2019-03-30T00:59:31.849Z,84.16
2019-03-30T01:00:31.836Z,83.95
2019-03-30T01:01:31.854Z,84.16
2019-03-30T01:02:31.812Z,83.75
2019-03-30T01:04:41.034Z,84.50
2019-03-30T01:05:41.982Z,84.88
2019-03-30T01:06:41.966Z,84.98
2019-03-30T01:07:41.961Z,84.77
2019-03-30T01:08:41.980Z,84.50
2019-03-30T01:09:42.009Z,84.61
2019-03-30T01:10:41.930Z,84.91
2019-03-30T01:11:41.916Z,85.63
2019-03-30T01:12:41.905Z,85.53
2019-03-30T01:13:41.907Z,85.12
2019-03-30T01:14:41.881Z,85.53
2019-03-30T01:15:41.885Z,85.53
2019-03-30T01:16:41.864Z,85.43
2019-03-30T01:17:41.846Z,85.33
2019-03-30T01:18:41.870Z,85.74
2019-03-30T01:19:41.836Z,85.33
2019-03-30T01:20:41.830Z,85.43
2019-03-30T01:21:41.806Z,85.43
2019-03-30T01:22:41.798Z,85.53
2019-03-30T01:23:41.803Z,85.43
2019-03-30T01:24:41.803Z,85.43
2019-03-30T01:25:41.759Z,85.43
2019-03-30T01:26:41.746Z,85.53
2019-03-30T01:27:41.746Z,85.47
2019-03-30T01:28:41.744Z,85.57
2019-03-30T01:29:41.741Z,85.57
2019-03-30T01:30:41.798Z,85.57
2019-03-30T01:31:41.710Z,85.78
2019-03-30T01:32:41.718Z,85.68
2019-03-30T01:33:41.684Z,85.26
2019-03-30T01:34:41.698Z,85.57
2019-03-30T01:35:41.661Z,85.68
2019-03-30T01:36:41.650Z,85.68
2019-03-30T01:37:41.638Z,85.47
2019-03-30T01:38:41.635Z,85.36
2019-03-30T01:39:41.625Z,85.68
2019-03-30T01:40:41.601Z,86.19
2019-03-30T01:41:41.591Z,86.43
2019-03-30T01:42:41.587Z,85.88
2019-03-30T01:43:41.576Z,85.41
2019-03-30T01:44:41.589Z,85.71
2019-03-30T01:45:41.537Z,85.68
2019-03-30T01:46:41.539Z,85.57
2019-03-30T01:47:41.531Z,85.41
2019-03-30T01:48:41.505Z,85.78
2019-03-30T01:49:41.521Z,85.78
2019-03-30T01:50:41.495Z,85.68
2019-03-30T01:51:41.478Z,85.88
2019-03-30T01:52:41.467Z,85.51
2019-03-30T01:53:41.460Z,85.92
2019-03-30T01:54:41.475Z,85.51
2019-03-30T01:55:41.434Z,85.92
2019-03-30T01:56:41.417Z,85.92
2019-03-30T01:57:41.410Z,85.82
2019-03-30T01:58:41.403Z,85.36
2019-03-30T01:59:41.408Z,85.82
2019-03-30T02:00:41.377Z,85.51
2019-03-30T02:01:41.376Z,85.57
2019-03-30T02:02:41.350Z,85.61
2019-03-30T02:03:41.342Z,86.08
2019-03-30T02:04:41.360Z,85.71
2019-03-30T02:05:41.322Z,85.78
2019-03-30T02:06:41.312Z,85.92
2019-03-30T02:07:41.324Z,85.92
2019-03-30T02:08:41.288Z,85.61
2019-03-30T02:09:41.298Z,85.61
2019-03-30T02:10:41.266Z,85.41
2019-03-30T02:11:41.262Z,85.71
2019-03-30T02:12:41.255Z,85.82
2019-03-30T02:13:41.238Z,85.47
2019-03-30T02:14:41.248Z,85.26
2019-03-30T02:15:41.213Z,85.47
2019-03-30T02:16:41.209Z,85.30
2019-03-30T02:17:41.202Z,85.20
2019-03-30T02:18:41.189Z,85.71
2019-03-30T02:19:41.197Z,85.51
2019-03-30T02:20:41.167Z,85.41
2019-03-30T02:21:41.150Z,85.51
2019-03-30T02:22:41.168Z,85.41
2019-03-30T02:23:41.134Z,85.61
2019-03-30T02:24:41.149Z,84.85
2019-03-30T02:25:41.101Z,85.51
2019-03-30T02:26:41.163Z,86.02
2019-03-30T02:27:41.096Z,85.92
2019-03-30T02:28:41.072Z,85.61
2019-03-30T02:29:41.079Z,85.51
2019-03-30T02:30:41.048Z,85.30
2019-03-30T02:31:41.037Z,85.51
2019-03-30T02:32:41.027Z,85.51
2019-03-30T02:33:41.022Z,85.51
2019-03-30T02:34:41.015Z,85.71
2019-03-30T02:35:40.993Z,85.75
2019-03-30T02:36:40.988Z,85.55
2019-03-30T02:37:40.996Z,86.16
2019-03-30T02:38:40.981Z,85.51
2019-03-30T02:39:40.976Z,85.75
2019-03-30T02:40:40.949Z,85.75
2019-03-30T02:41:40.936Z,86.37
2019-03-30T02:42:40.914Z,86.47
2019-03-30T02:43:40.951Z,86.16
2019-03-30T02:44:40.912Z,86.16
2019-03-30T02:45:40.899Z,86.37
2019-03-30T02:46:40.893Z,85.96
2019-03-30T02:47:40.928Z,86.10
2019-03-30T02:48:40.860Z,86.27
2019-03-30T02:49:40.853Z,86.10
2019-03-30T02:50:50.028Z,86.72
2019-03-30T02:51:40.825Z,86.82
2019-03-30T02:52:40.809Z,86.72
2019-03-30T02:53:40.795Z,86.82
2019-03-30T02:54:40.819Z,86.61
2019-03-30T02:55:40.776Z,87.13
2019-03-30T02:56:40.766Z,86.82
2019-03-30T02:57:40.766Z,86.82
2019-03-30T02:58:40.744Z,86.82
2019-03-30T02:59:40.779Z,86.72
2019-03-30T03:00:40.725Z,86.93
2019-03-30T03:01:40.711Z,86.93
2019-03-30T03:02:40.706Z,86.87
2019-03-30T03:03:40.682Z,87.69
2019-03-30T03:05:50.180Z,87.69
2019-03-30T03:06:51.162Z,87.17
2019-03-30T03:07:51.155Z,87.69
2019-03-30T03:08:51.142Z,87.27
2019-03-30T03:09:51.151Z,87.38
2019-03-30T03:10:51.123Z,87.79
2019-03-30T03:11:51.114Z,87.27
2019-03-30T03:12:51.091Z,87.27
2019-03-30T03:13:51.095Z,87.27
2019-03-30T03:14:51.099Z,87.38
2019-03-30T03:15:51.067Z,87.59
2019-03-30T03:16:51.062Z,87.38
2019-03-30T03:17:51.049Z,87.59
2019-03-30T03:18:51.034Z,87.79
2019-03-30T03:19:51.022Z,87.27
2019-03-30T03:21:06.505Z,87.17
2019-03-30T03:21:51.002Z,87.48
2019-03-30T03:22:50.989Z,87.59
2019-03-30T03:23:50.977Z,87.32
2019-03-30T03:24:50.986Z,87.59
2019-03-30T03:25:51.091Z,87.63
2019-03-30T03:26:50.946Z,87.93
2019-03-30T03:27:50.933Z,88.56
2019-03-30T03:28:50.927Z,87.73
2019-03-30T03:29:50.925Z,87.69
2019-03-30T03:30:50.893Z,87.73
2019-03-30T03:31:50.889Z,87.73
2019-03-30T03:32:50.870Z,88.35
2019-03-30T03:33:50.866Z,87.93
2019-03-30T03:34:50.943Z,88.35
2019-03-30T03:35:50.856Z,88.24
2019-03-30T03:36:50.835Z,88.65
2019-03-30T03:37:51.616Z,87.63
2019-03-30T03:38:50.823Z,88.65
2019-03-30T03:39:50.811Z,87.98
2019-03-30T03:40:50.786Z,87.66
2019-03-30T03:41:50.776Z,88.45
2019-03-30T03:42:50.777Z,87.63
2019-03-30T03:43:50.749Z,88.29
2019-03-30T03:44:50.772Z,88.56
2019-03-30T03:45:50.725Z,88.59
2019-03-30T03:46:50.718Z,88.18
2019-03-30T03:47:50.712Z,87.98
2019-03-30T03:48:50.703Z,87.87
2019-03-30T03:49:50.712Z,88.18
2019-03-30T03:50:50.682Z,88.70
2019-03-30T03:51:50.673Z,88.39
2019-03-30T03:52:50.664Z,88.49
2019-03-30T03:53:50.665Z,88.49
2019-03-30T03:54:50.652Z,88.18
2019-03-30T03:55:50.612Z,87.66
2019-03-30T03:56:50.619Z,88.39
2019-03-30T03:57:50.601Z,88.43
2019-03-30T03:58:50.591Z,88.70
2019-03-30T03:59:50.603Z,89.05
2019-03-30T04:00:50.578Z,88.95
2019-03-30T04:01:50.557Z,89.01
2019-03-30T04:02:50.547Z,89.42
2019-03-30T04:03:50.531Z,89.11
2019-03-30T04:04:50.573Z,89.11
2019-03-30T04:05:50.517Z,88.84
2019-03-30T04:06:50.513Z,88.74
2019-03-30T04:07:50.480Z,89.15
2019-03-30T04:08:50.478Z,89.01
2019-03-30T04:09:50.480Z,88.84
2019-03-30T04:10:50.475Z,89.15
2019-03-30T04:11:50.431Z,89.46
2019-03-30T04:12:50.425Z,89.56
2019-03-30T04:13:50.426Z,89.46
2019-03-30T04:14:50.418Z,89.25
2019-03-30T04:15:50.422Z,89.25
2019-03-30T04:16:50.378Z,89.15
2019-03-30T04:17:50.378Z,89.46
2019-03-30T04:18:50.361Z,89.22
2019-03-30T04:19:50.377Z,89.46
2019-03-30T04:20:50.358Z,89.36
2019-03-30T04:21:50.376Z,89.46
2019-03-30T04:22:50.330Z,89.36
2019-03-30T04:23:54.042Z,88.95
2019-03-30T04:24:50.306Z,88.84
2019-03-30T04:25:50.312Z,89.05
2019-03-30T04:26:50.269Z,89.36
2019-03-30T04:27:50.264Z,89.15
2019-03-30T04:28:50.253Z,88.95
2019-03-30T04:29:50.235Z,89.05
2019-03-30T04:30:50.255Z,89.29
2019-03-30T04:31:50.344Z,89.19
2019-03-30T04:32:50.233Z,89.92
2019-03-30T04:33:50.194Z,89.71
2019-03-30T04:34:50.205Z,89.40
2019-03-30T04:35:50.200Z,89.71
2019-03-30T04:36:50.176Z,89.61
2019-03-30T04:37:50.156Z,89.40
2019-03-30T04:38:50.142Z,89.86
2019-03-30T04:39:50.139Z,89.54
2019-03-30T04:40:50.144Z,89.95
2019-03-30T04:41:50.120Z,90.26
2019-03-30T04:42:50.099Z,90.68
2019-03-30T04:43:50.089Z,90.26
2019-03-30T04:44:50.091Z,90.78
2019-03-30T04:45:50.091Z,90.64
2019-03-30T04:46:50.056Z,89.95
2019-03-30T04:47:50.042Z,90.02
2019-03-30T04:48:50.052Z,89.92
2019-03-30T04:49:50.028Z,90.37
2019-03-30T04:50:50.027Z,89.95
2019-03-30T04:51:57.460Z,90.06
2019-03-30T04:52:50.000Z,90.06
2019-03-30T04:53:49.984Z,90.16
2019-03-30T04:54:50.020Z,90.37
2019-03-30T04:55:49.981Z,90.68
2019-03-30T04:56:49.978Z,90.33
2019-03-30T04:57:50.069Z,90.02
2019-03-30T04:58:49.936Z,90.26
2019-03-30T04:59:49.910Z,90.12
2019-03-30T05:00:49.920Z,90.47
2019-03-30T05:01:49.909Z,89.65
2019-03-30T05:02:49.900Z,89.44
2019-03-30T05:03:49.892Z,89.44
2019-03-30T05:04:49.884Z,89.54
2019-03-30T05:06:59.095Z,89.13
2019-03-30T05:08:00.045Z,89.44
2019-03-30T05:09:00.043Z,89.81
2019-03-30T05:10:00.023Z,89.95
2019-03-30T05:11:00.043Z,89.54
2019-03-30T05:11:59.998Z,90.16
2019-03-30T05:12:59.987Z,90.16
2019-03-30T05:13:59.993Z,90.26
2019-03-30T05:14:59.978Z,90.47
2019-03-30T05:15:59.992Z,90.26
2019-03-30T05:16:59.982Z,90.26
2019-03-30T05:17:59.943Z,90.47
2019-03-30T05:18:59.923Z,90.47
2019-03-30T05:19:59.927Z,90.26
2019-03-30T05:20:59.922Z,90.16
2019-03-30T05:22:11.506Z,90.72
2019-03-30T05:22:59.894Z,90.58
2019-03-30T05:23:59.879Z,91.09
2019-03-30T05:24:59.862Z,90.06
2019-03-30T05:25:59.885Z,90.37
2019-03-30T05:26:59.835Z,90.16
2019-03-30T05:27:59.826Z,90.16
2019-03-30T05:28:59.824Z,90.26
2019-03-30T05:29:59.816Z,89.95
2019-03-30T05:30:59.821Z,90.26
2019-03-30T05:31:59.791Z,89.44
2019-03-30T05:33:05.887Z,90.06
2019-03-30T05:33:59.766Z,89.54
2019-03-30T05:34:59.765Z,89.44
2019-03-30T05:35:59.763Z,89.65
2019-03-30T05:36:59.736Z,89.65
2019-03-30T05:38:01.460Z,89.54
2019-03-30T05:38:59.718Z,89.86
2019-03-30T05:39:59.731Z,89.65
2019-03-30T05:40:59.718Z,89.44
2019-03-30T05:41:59.693Z,89.23
2019-03-30T05:42:59.690Z,89.54
2019-03-30T05:43:59.658Z,89.61
2019-03-30T05:44:59.660Z,89.61
2019-03-30T05:45:59.652Z,89.81
2019-03-30T05:46:59.637Z,89.34
2019-03-30T05:47:59.626Z,89.81
2019-03-30T05:48:59.603Z,89.19
2019-03-30T05:49:59.591Z,89.81
2019-03-30T05:50:59.598Z,89.40
2019-03-30T05:51:59.590Z,88.98
2019-03-30T05:52:59.577Z,88.57
2019-03-30T05:53:59.560Z,88.47
2019-03-30T05:54:59.552Z,88.02
2019-03-30T05:55:59.544Z,88.32
2019-03-30T05:56:59.635Z,88.32
2019-03-30T05:57:59.515Z,87.92
2019-03-30T05:58:59.495Z,88.43
2019-03-30T05:59:59.484Z,87.92
2019-03-30T06:00:59.507Z,87.81
2019-03-30T06:01:59.463Z,87.81
2019-03-30T06:02:59.520Z,87.71
2019-03-30T06:03:59.465Z,87.81
2019-03-30T06:05:03.004Z,87.71
2019-03-30T06:05:59.446Z,87.77
2019-03-30T06:06:59.410Z,87.60
2019-03-30T06:07:59.405Z,87.66
2019-03-30T06:08:59.389Z,86.94
2019-03-30T06:09:59.389Z,87.05
2019-03-30T06:10:59.429Z,86.94
2019-03-30T06:11:59.356Z,85.97
2019-03-30T06:12:59.357Z,86.29
2019-03-30T06:13:59.412Z,86.29
2019-03-30T06:14:59.330Z,86.08
2019-03-30T06:15:59.333Z,85.73
2019-03-30T06:16:59.321Z,85.52
2019-03-30T06:17:59.300Z,85.83
2019-03-30T06:18:59.277Z,85.11
2019-03-30T06:19:59.282Z,84.59
2019-03-30T06:20:59.260Z,84.25
2019-03-30T06:21:59.271Z,84.25
2019-03-30T06:22:59.244Z,83.63
2019-03-30T06:23:59.248Z,84.14
2019-03-30T06:24:59.224Z,83.39
2019-03-30T06:25:59.209Z,83.49
2019-03-30T06:26:59.221Z,83.18
2019-03-30T06:27:59.183Z,83.55
2019-03-30T06:28:59.168Z,82.73
2019-03-30T06:29:59.169Z,83.45
2019-03-30T06:30:59.869Z,83.14
2019-03-30T06:31:59.165Z,82.32
2019-03-30T06:32:59.131Z,81.81
2019-03-30T06:33:59.127Z,82.32
2019-03-30T06:34:59.112Z,81.56
2019-03-30T06:35:59.105Z,81.76
2019-03-30T06:36:59.106Z,81.25
2019-03-30T06:37:59.095Z,81.35
2019-03-30T06:38:59.096Z,81.67
2019-03-30T06:39:59.053Z,80.19
2019-03-30T06:40:59.072Z,80.49
2019-03-30T06:41:59.047Z,80.29
2019-03-30T06:42:59.027Z,80.60
2019-03-30T06:43:59.022Z,79.67
2019-03-30T06:44:59.011Z,79.26
2019-03-30T06:45:59.021Z,80.05
2019-03-30T06:46:58.976Z,79.33
2019-03-30T06:47:58.971Z,79.19
2019-03-30T06:48:58.972Z,79.39
2019-03-30T06:49:58.954Z,79.08
2019-03-30T06:50:58.955Z,79.70
2019-03-30T06:51:58.917Z,79.29
2019-03-30T06:52:59.105Z,78.88
2019-03-30T06:53:58.901Z,78.12
2019-03-30T06:54:58.889Z,78.23
2019-03-30T06:55:58.944Z,78.12
2019-03-30T06:56:58.872Z,78.23
2019-03-30T06:57:58.861Z,78.19
2019-03-30T06:58:58.848Z,78.09
2019-03-30T06:59:58.830Z,78.09
2019-03-30T07:00:58.839Z,77.78
2019-03-30T07:01:58.836Z,76.62
2019-03-30T07:02:58.802Z,77.13
2019-03-30T07:03:58.792Z,76.51
2019-03-30T07:04:58.778Z,76.82
2019-03-30T07:05:58.779Z,76.17
2019-03-30T07:08:07.964Z,75.76
2019-03-30T07:09:08.935Z,75.96
2019-03-30T07:10:08.929Z,75.73
2019-03-30T07:11:20.551Z,76.03
2019-03-30T07:12:08.982Z,75.52
2019-03-30T07:13:08.905Z,74.97
2019-03-30T07:14:08.894Z,75.48
2019-03-30T07:15:08.871Z,75.69
2019-03-30T07:16:08.871Z,74.26
2019-03-30T07:17:08.870Z,73.74
2019-03-30T07:18:08.850Z,74.26
2019-03-30T07:19:08.828Z,74.53
2019-03-30T07:20:08.813Z,73.30
2019-03-30T07:21:08.802Z,73.95
2019-03-30T07:22:08.816Z,73.64
2019-03-30T07:23:12.186Z,74.77
2019-03-30T07:24:08.778Z,74.11
2019-03-30T07:25:08.762Z,74.60
2019-03-30T07:26:08.757Z,73.06
2019-03-30T07:27:08.756Z,73.33
2019-03-30T07:28:08.741Z,73.03
2019-03-30T07:29:08.732Z,73.23
2019-03-30T07:30:08.718Z,73.30
2019-03-30T07:31:08.704Z,71.77
2019-03-30T07:32:08.703Z,71.46
2019-03-30T07:33:08.671Z,71.83
2019-03-30T07:34:08.668Z,71.83
2019-03-30T07:35:08.656Z,71.12
2019-03-30T07:36:08.650Z,70.71
2019-03-30T07:37:08.649Z,70.71
2019-03-30T07:38:08.625Z,71.19
2019-03-30T07:39:08.613Z,71.09
2019-03-30T07:40:08.608Z,70.78
2019-03-30T07:41:08.599Z,70.88
2019-03-30T07:42:08.601Z,69.93
2019-03-30T07:43:08.569Z,69.42
2019-03-30T07:44:08.555Z,68.88
2019-03-30T07:45:08.554Z,68.98
2019-03-30T07:46:08.539Z,67.24
2019-03-30T07:47:08.545Z,67.45
2019-03-30T07:48:08.510Z,67.52
2019-03-30T07:49:08.504Z,67.93
2019-03-30T07:50:08.495Z,68.10
2019-03-30T07:51:08.482Z,67.29
2019-03-30T07:52:08.486Z,67.32
2019-03-30T07:53:08.469Z,67.32
2019-03-30T07:54:08.457Z,67.18
2019-03-30T07:55:08.475Z,67.08
2019-03-30T07:56:09.049Z,67.32
2019-03-30T07:57:16.891Z,66.97
2019-03-30T07:58:08.451Z,67.05
2019-03-30T07:59:08.404Z,66.64
2019-03-30T08:00:08.388Z,66.23
2019-03-30T08:01:08.405Z,66.30
2019-03-30T08:02:08.385Z,65.86
2019-03-30T08:03:08.362Z,65.86
2019-03-30T08:04:08.340Z,64.95
2019-03-30T08:05:08.350Z,65.05
2019-03-30T08:06:08.327Z,65.19
2019-03-30T08:07:08.321Z,65.39
2019-03-30T08:08:08.305Z,65.66
2019-03-30T08:09:08.285Z,65.36
2019-03-30T08:10:08.273Z,65.12
2019-03-30T08:11:08.270Z,64.48
2019-03-30T08:12:08.268Z,64.20
2019-03-30T08:13:08.243Z,65.16
2019-03-30T08:14:08.233Z,64.81
2019-03-30T08:15:08.234Z,64.00
2019-03-30T08:16:08.208Z,64.61
2019-03-30T08:17:08.224Z,63.70
2019-03-30T08:18:08.198Z,63.67
2019-03-30T08:19:08.191Z,63.57
2019-03-30T08:20:08.165Z,64.18
2019-03-30T08:21:08.159Z,64.07
2019-03-30T08:22:08.167Z,64.20
2019-03-30T08:23:08.137Z,65.02
2019-03-30T08:24:08.124Z,64.28
2019-03-30T08:25:08.117Z,64.48
2019-03-30T08:26:08.102Z,63.39
2019-03-30T08:27:08.108Z,64.81
2019-03-30T08:28:08.081Z,64.69
2019-03-30T08:29:08.070Z,64.18
2019-03-30T08:30:08.051Z,64.25
2019-03-30T08:31:08.041Z,63.71
2019-03-30T08:32:08.076Z,63.00
2019-03-30T08:33:08.018Z,62.26
2019-03-30T08:34:08.016Z,61.88
2019-03-30T08:35:07.997Z,62.46
2019-03-30T08:36:07.997Z,62.16
2019-03-30T08:37:07.993Z,61.52
2019-03-30T08:38:07.989Z,61.93
2019-03-30T08:39:07.948Z,61.82
2019-03-30T08:40:07.953Z,61.62
2019-03-30T08:41:07.931Z,61.49
2019-03-30T08:42:07.992Z,60.98
2019-03-30T08:43:07.946Z,61.69
2019-03-30T08:44:07.924Z,61.79
2019-03-30T08:45:07.906Z,61.39
2019-03-30T08:46:07.877Z,61.59
2019-03-30T08:47:07.862Z,60.68
2019-03-30T08:48:07.907Z,60.44
2019-03-30T08:49:07.850Z,60.35
2019-03-30T08:50:07.831Z,60.24
2019-03-30T08:51:07.816Z,59.50
2019-03-30T08:52:07.820Z,59.27
2019-03-30T08:53:07.839Z,59.17
2019-03-30T08:54:07.785Z,59.17
2019-03-30T08:55:07.784Z,59.50
2019-03-30T08:56:07.794Z,60.21
2019-03-30T08:57:07.765Z,60.72
2019-03-30T08:58:07.814Z,60.39
2019-03-30T08:59:07.746Z,58.49
2019-03-30T09:00:07.719Z,60.11
2019-03-30T09:01:07.721Z,59.74
2019-03-30T09:02:07.698Z,61.76
2019-03-30T09:03:07.704Z,60.21
2019-03-30T09:04:07.682Z,60.19
2019-03-30T09:05:07.687Z,59.25
2019-03-30T09:06:07.662Z,58.92
2019-03-30T09:07:07.658Z,58.11
2019-03-30T09:08:58.563Z,57.47
2019-03-30T09:09:59.537Z,58.41
2019-03-30T09:10:59.530Z,58.48
2019-03-30T09:11:59.518Z,58.31
2019-03-30T09:12:59.524Z,57.17
2019-03-30T09:13:59.487Z,56.66
2019-03-30T09:14:59.476Z,56.79
2019-03-30T09:15:59.468Z,57.87
2019-03-30T09:16:59.457Z,56.15
2019-03-30T09:17:59.487Z,56.02
2019-03-30T09:18:59.433Z,55.82
2019-03-30T09:19:59.431Z,55.19
2019-03-30T09:20:59.415Z,55.29
2019-03-30T09:21:59.407Z,55.40
2019-03-30T09:22:59.419Z,55.67
2019-03-30T09:24:09.342Z,55.34
2019-03-30T09:24:59.379Z,54.94
2019-03-30T09:25:59.361Z,54.41
2019-03-30T09:26:59.353Z,53.60
2019-03-30T09:27:59.367Z,53.00
2019-03-30T09:28:59.333Z,53.93
2019-03-30T09:29:59.305Z,54.05
2019-03-30T09:30:59.299Z,55.07
2019-03-30T09:32:13.216Z,54.53
2019-03-30T09:32:59.305Z,55.54
2019-03-30T09:33:59.279Z,55.65
2019-03-30T09:34:59.272Z,54.74
2019-03-30T09:35:59.294Z,53.40
2019-03-30T09:36:59.251Z,54.10
2019-03-30T09:37:59.226Z,54.00
2019-03-30T09:38:59.224Z,52.97
2019-03-30T09:39:59.200Z,52.54
2019-03-30T09:40:59.216Z,52.94
2019-03-30T09:41:59.186Z,52.62
2019-03-30T09:42:59.175Z,52.19
2019-03-30T09:43:59.158Z,51.68
2019-03-30T09:44:59.146Z,52.01
2019-03-30T09:45:59.156Z,52.04
2019-03-30T09:46:59.118Z,51.84
2019-03-30T09:47:59.120Z,51.84
2019-03-30T09:48:59.100Z,52.14
2019-03-30T09:50:02.266Z,52.14
2019-03-30T09:50:59.096Z,51.61
2019-03-30T09:51:59.069Z,51.31
2019-03-30T09:52:59.059Z,52.01
2019-03-30T09:53:59.056Z,50.68
2019-03-30T09:54:59.040Z,50.37
2019-03-30T09:55:59.041Z,51.00
2019-03-30T09:56:59.011Z,50.57
2019-03-30T09:57:59.004Z,50.17
2019-03-30T09:58:59.003Z,52.49
2019-03-30T09:59:58.973Z,52.01
2019-03-30T10:00:59.013Z,52.29
2019-03-30T10:01:58.966Z,50.56
2019-03-30T10:02:59.051Z,50.78
2019-03-30T10:03:58.946Z,50.96
2019-03-30T10:04:58.931Z,50.48
2019-03-30T10:05:58.963Z,51.71
2019-03-30T10:06:58.911Z,52.49
2019-03-30T10:07:58.975Z,50.78
2019-03-30T10:08:58.890Z,51.76
2019-03-30T10:09:58.863Z,51.97
2019-03-30T10:10:58.875Z,51.54
2019-03-30T10:11:58.841Z,50.81
2019-03-30T10:12:58.887Z,49.98
2019-03-30T10:13:58.828Z,50.08
2019-03-30T10:14:58.829Z,49.80
2019-03-30T10:15:58.819Z,49.77
2019-03-30T10:16:58.787Z,49.27
2019-03-30T10:17:58.812Z,49.57
2019-03-30T10:18:58.764Z,49.80
2019-03-30T10:20:04.578Z,50.13
2019-03-30T10:20:58.767Z,50.15
2019-03-30T10:21:58.746Z,50.33
2019-03-30T10:22:58.730Z,50.02
2019-03-30T10:23:58.725Z,50.31
2019-03-30T10:24:58.713Z,50.60
2019-03-30T10:25:58.706Z,50.60
2019-03-30T10:26:58.688Z,49.80
2019-03-30T10:27:58.684Z,49.40
2019-03-30T10:28:58.655Z,49.30
2019-03-30T10:29:58.655Z,50.00
2019-03-30T10:30:58.667Z,50.00
2019-03-30T10:32:00.080Z,49.48
2019-03-30T10:32:58.624Z,49.48
2019-03-30T10:33:58.609Z,49.15
2019-03-30T10:34:58.606Z,48.37
2019-03-30T10:35:58.630Z,49.37
2019-03-30T10:36:58.581Z,49.40
2019-03-30T10:37:58.567Z,50.13
2019-03-30T10:38:58.555Z,50.00
2019-03-30T10:39:58.549Z,50.51
2019-03-30T10:40:58.547Z,50.18
2019-03-30T10:41:58.522Z,49.37
2019-03-30T10:42:58.511Z,49.25
2019-03-30T10:43:58.504Z,48.87
2019-03-30T10:44:58.497Z,48.07
2019-03-30T10:45:58.489Z,48.07
2019-03-30T10:46:58.467Z,48.27
2019-03-30T10:47:58.444Z,48.27
2019-03-30T10:48:58.453Z,47.74
2019-03-30T10:49:58.430Z,47.94
2019-03-30T10:50:58.481Z,48.77
2019-03-30T10:51:58.408Z,48.14
2019-03-30T10:52:58.396Z,48.57
2019-03-30T10:53:58.376Z,48.27
2019-03-30T10:54:58.378Z,48.35
2019-03-30T10:55:58.380Z,47.72
2019-03-30T10:56:58.376Z,46.81
2019-03-30T10:57:58.861Z,47.52
2019-03-30T10:58:58.350Z,47.09
2019-03-30T10:59:58.321Z,47.80
2019-03-30T11:00:58.315Z,47.47
2019-03-30T11:01:58.316Z,47.30
2019-03-30T11:02:58.298Z,48.22
2019-03-30T11:03:58.305Z,49.27
2019-03-30T11:04:58.272Z,49.37
2019-03-30T11:05:58.255Z,49.48
2019-03-30T11:06:58.266Z,49.33
2019-03-30T11:07:58.240Z,45.91
2019-03-30T11:10:07.422Z,46.59
2019-03-30T11:11:08.474Z,47.44
2019-03-30T11:12:08.378Z,47.94
2019-03-30T11:13:08.379Z,46.72
2019-03-30T11:14:08.411Z,46.22
2019-03-30T11:15:08.364Z,46.07
2019-03-30T11:16:08.364Z,46.35
2019-03-30T11:17:08.366Z,44.72
2019-03-30T11:18:08.331Z,43.77
2019-03-30T11:19:08.320Z,42.82
2019-03-30T11:20:08.306Z,43.34
2019-03-30T11:21:08.283Z,42.21
2019-03-30T11:22:08.296Z,41.82
2019-03-30T11:23:08.264Z,42.02
2019-03-30T11:24:08.252Z,42.21
2019-03-30T11:25:09.069Z,42.38
2019-03-30T11:26:08.235Z,43.90
2019-03-30T11:27:08.271Z,43.88
2019-03-30T11:28:08.215Z,43.70
2019-03-30T11:29:08.215Z,44.31
2019-03-30T11:30:08.196Z,44.10
2019-03-30T11:31:08.186Z,43.58
2019-03-30T11:32:08.179Z,42.44
2019-03-30T11:33:08.152Z,42.03
2019-03-30T11:34:08.147Z,41.91
2019-03-30T11:35:08.127Z,42.78
2019-03-30T11:36:08.119Z,43.38
2019-03-30T11:37:08.134Z,43.70
2019-03-30T11:38:08.133Z,43.58
2019-03-30T11:39:08.090Z,43.30
2019-03-30T11:40:08.079Z,44.40
2019-03-30T11:41:08.062Z,44.91
2019-03-30T11:42:08.073Z,43.78
2019-03-30T11:43:08.047Z,43.86
2019-03-30T11:44:08.030Z,43.02
2019-03-30T11:45:08.024Z,42.40
2019-03-30T11:46:08.014Z,42.16
2019-03-30T11:47:08.024Z,42.38
2019-03-30T11:48:07.990Z,41.65
2019-03-30T11:49:07.978Z,41.57
2019-03-30T11:50:08.680Z,40.43
2019-03-30T11:51:07.953Z,40.63
2019-03-30T11:52:07.964Z,40.53
2019-03-30T11:53:07.936Z,40.37
2019-03-30T11:54:07.931Z,40.05
2019-03-30T11:55:21.162Z,40.43
2019-03-30T11:56:07.946Z,40.73
2019-03-30T11:57:07.909Z,40.77
2019-03-30T11:58:07.889Z,40.97
2019-03-30T11:59:07.874Z,40.05
2019-03-30T12:00:07.854Z,41.27
2019-03-30T12:01:07.842Z,40.53
2019-03-30T12:02:07.933Z,41.03
2019-03-30T12:03:07.845Z,39.81
2019-03-30T12:04:07.820Z,39.91
2019-03-30T12:05:07.810Z,40.61
2019-03-30T12:06:07.814Z,39.91
2019-03-30T12:07:07.801Z,40.81
2019-03-30T12:08:07.790Z,40.61
2019-03-30T12:09:07.764Z,38.40
2019-03-30T12:10:07.743Z,40.57
2019-03-30T12:11:07.735Z,40.37
2019-03-30T12:12:07.722Z,39.97
2019-03-30T12:13:07.817Z,39.95
2019-03-30T12:14:07.713Z,38.62
2019-03-30T12:15:07.699Z,39.25
2019-03-30T12:16:07.682Z,39.97
2019-03-30T12:17:07.688Z,40.25
2019-03-30T12:18:07.705Z,39.93
2019-03-30T12:19:07.649Z,39.12
2019-03-30T12:20:07.644Z,38.74
2019-03-30T12:21:07.617Z,39.14
2019-03-30T12:22:07.623Z,37.92
2019-03-30T12:23:07.618Z,38.81
2019-03-30T12:24:07.594Z,38.40
2019-03-30T12:25:07.578Z,38.68
2019-03-30T12:26:07.589Z,38.92
2019-03-30T12:27:07.562Z,39.75
2019-03-30T12:28:07.564Z,39.83
2019-03-30T12:29:07.576Z,38.70
2019-03-30T12:30:07.530Z,38.92
2019-03-30T12:31:07.514Z,38.22
2019-03-30T12:32:07.495Z,38.72
2019-03-30T12:33:07.723Z,38.60
2019-03-30T12:34:07.490Z,38.53
2019-03-30T12:35:07.473Z,39.62
2019-03-30T12:36:07.474Z,38.82
2019-03-30T12:37:07.462Z,38.32
2019-03-30T12:38:07.464Z,38.12
2019-03-30T12:39:07.429Z,38.32
2019-03-30T12:40:07.448Z,38.24
2019-03-30T12:41:07.404Z,39.32
2019-03-30T12:42:07.393Z,38.34
2019-03-30T12:43:07.404Z,38.66
2019-03-30T12:44:07.395Z,39.18
2019-03-30T12:45:07.371Z,39.86
2019-03-30T12:46:07.345Z,40.57
2019-03-30T12:47:10.235Z,40.47
2019-03-30T12:48:07.363Z,40.37
2019-03-30T12:49:07.310Z,42.25
2019-03-30T12:50:07.325Z,43.06
2019-03-30T12:51:07.303Z,42.83
2019-03-30T12:52:07.289Z,42.54
2019-03-30T12:53:07.291Z,42.83
2019-03-30T12:54:07.261Z,43.96
2019-03-30T12:55:07.255Z,45.10
2019-03-30T12:56:08.987Z,45.29
2019-03-30T12:57:07.228Z,44.44
2019-03-30T12:58:07.228Z,43.36
2019-03-30T12:59:07.207Z,43.24